Terminal Aerodrome Forecast
Issued by NWS Bismarck, ND

Home | Current Version | Previous Version | Text Only | Print | Product List | Glossary Off
Versions: 1 2 3 4 5 6 7 8 9 10 11 12 13 14 15

000
FTUS43 KBIS 280300 AAA
TAFBIS
TAF AMD
KBIS 280306Z 2803/2824 03003KT P6SM FEW060
     FM280700 01002KT P6SM SCT045
     FM281500 36007KT P6SM SCT045 SCT070=

USA.gov is the U.S. government's official web portal to all federal, state and local government web resources and services.